createdAt,value
2018-03-21T00:00:00.578Z,0.50
2018-03-21T00:02:28.955Z,0.40
2018-03-21T00:04:57.371Z,0.40
2018-03-21T00:07:24.946Z,0.40
2018-03-21T00:09:52.589Z,0.40
2018-03-21T00:12:20.213Z,0.40
2018-03-21T00:14:48.587Z,0.40
2018-03-21T00:17:16.323Z,0.30
2018-03-21T00:19:43.934Z,0.30
2018-03-21T00:22:12.354Z,0.20
2018-03-21T00:24:40.733Z,0.10
2018-03-21T00:27:08.360Z,0.10
2018-03-21T00:29:36.048Z,0.10
2018-03-21T00:32:03.625Z,0.10
2018-03-21T00:34:31.206Z,0.10
2018-03-21T00:36:58.889Z,0.00
2018-03-21T00:39:26.509Z,-0.10
2018-03-21T00:41:54.175Z,-0.10
2018-03-21T00:44:21.762Z,-0.10
2018-03-21T00:46:49.383Z,0.00
2018-03-21T00:49:17.068Z,-0.10
2018-03-21T00:51:44.644Z,-0.10
2018-03-21T00:54:12.280Z,-0.20
2018-03-21T00:56:40.710Z,-0.30
2018-03-21T00:59:09.118Z,-0.30
2018-03-21T01:01:38.857Z,-0.30
2018-03-21T01:04:06.503Z,-0.30
2018-03-21T01:06:34.104Z,-0.30
2018-03-21T01:09:01.715Z,-0.40
2018-03-21T01:11:29.366Z,-0.40
2018-03-21T01:13:56.940Z,-0.40
2018-03-21T01:16:24.528Z,-0.50
2018-03-21T01:18:52.151Z,-0.50
2018-03-21T01:21:19.812Z,-0.50
2018-03-21T01:23:47.421Z,-0.50
2018-03-21T01:26:15.053Z,-0.70
2018-03-21T01:28:42.687Z,-0.60
2018-03-21T01:31:11.069Z,-0.60
2018-03-21T01:33:39.416Z,-0.50
2018-03-21T01:36:07.824Z,-0.50
2018-03-21T01:38:35.486Z,-0.50
2018-03-21T01:41:03.890Z,-0.60
2018-03-21T01:43:31.596Z,-0.60
2018-03-21T01:45:59.191Z,-0.60
2018-03-21T01:48:26.791Z,-0.70
2018-03-21T01:50:54.406Z,-0.80
2018-03-21T01:53:22.800Z,-0.90
2018-03-21T01:55:50.423Z,-0.90
2018-03-21T01:58:18.012Z,-1.00
2018-03-21T02:00:45.615Z,-1.10
2018-03-21T02:03:13.219Z,-1.10
2018-03-21T02:05:40.951Z,-1.20
2018-03-21T02:08:08.607Z,-1.20
2018-03-21T02:10:38.319Z,-1.20
2018-03-21T02:13:09.265Z,-1.20
2018-03-21T02:15:39.015Z,-1.30
2018-03-21T02:18:09.679Z,-1.30
2018-03-21T02:20:39.314Z,-1.30
2018-03-21T02:23:07.949Z,-1.30
2018-03-21T02:25:39.123Z,-1.40
2018-03-21T02:28:08.706Z,-1.40
2018-03-21T02:30:39.438Z,-1.40
2018-03-21T02:33:09.202Z,-1.50
2018-03-21T02:35:41.488Z,-1.50
2018-03-21T02:38:13.055Z,-1.50
2018-03-21T02:40:43.038Z,-1.50
2018-03-21T02:43:13.689Z,-1.50
2018-03-21T02:45:43.670Z,-1.60
2018-03-21T02:48:14.068Z,-1.60
2018-03-21T02:50:44.736Z,-1.60
2018-03-21T02:53:14.425Z,-1.60
2018-03-21T02:55:44.464Z,-1.60
2018-03-21T02:58:14.205Z,-1.70
2018-03-21T03:00:44.327Z,-1.70
2018-03-21T03:03:15.327Z,-1.70
2018-03-21T03:05:45.046Z,-1.80
2018-03-21T03:08:16.593Z,-1.90
2018-03-21T03:10:46.845Z,-2.00
2018-03-21T03:13:16.640Z,-1.90
2018-03-21T03:15:46.327Z,-2.00
2018-03-21T03:18:16.115Z,-1.90
2018-03-21T03:20:46.581Z,-1.90
2018-03-21T03:23:16.012Z,-2.00
2018-03-21T03:25:43.594Z,-1.90
2018-03-21T03:28:11.246Z,-1.90
2018-03-21T03:30:38.818Z,-1.90
2018-03-21T03:33:06.477Z,-1.90
2018-03-21T03:35:34.075Z,-1.90
2018-03-21T03:38:01.758Z,-2.00
2018-03-21T03:40:29.410Z,-2.00
2018-03-21T03:42:57.023Z,-1.90
2018-03-21T03:45:24.643Z,-1.90
2018-03-21T03:47:53.110Z,-1.90
2018-03-21T03:50:20.766Z,-1.80
2018-03-21T03:52:48.399Z,-1.80
2018-03-21T03:55:16.014Z,-1.80
2018-03-21T03:57:44.351Z,-1.80
2018-03-21T04:00:12.803Z,-1.80
2018-03-21T04:02:40.431Z,-1.80
2018-03-21T04:05:08.092Z,-1.80
2018-03-21T04:07:35.700Z,-1.80
2018-03-21T04:10:03.319Z,-1.80
2018-03-21T04:12:30.965Z,-1.90
2018-03-21T04:14:58.582Z,-2.00
2018-03-21T04:17:26.167Z,-2.10
2018-03-21T04:19:54.566Z,-2.10
2018-03-21T04:22:22.231Z,-2.10
2018-03-21T04:24:49.851Z,-2.10
2018-03-21T04:27:17.439Z,-2.10
2018-03-21T04:29:45.838Z,-2.20
2018-03-21T04:32:13.455Z,-2.20
2018-03-21T04:34:41.121Z,-2.20
2018-03-21T04:37:08.733Z,-2.20
2018-03-21T04:39:36.342Z,-2.20
2018-03-21T04:42:03.960Z,-2.20
2018-03-21T04:44:31.533Z,-2.30
2018-03-21T04:46:59.168Z,-2.20
2018-03-21T04:49:26.750Z,-2.20
2018-03-21T04:51:54.364Z,-2.30
2018-03-21T04:54:22.764Z,-2.30
2018-03-21T04:56:50.359Z,-2.30
2018-03-21T04:59:17.991Z,-2.40
2018-03-21T05:01:45.618Z,-2.40
2018-03-21T05:04:13.261Z,-2.40
2018-03-21T05:06:40.851Z,-2.40
2018-03-21T05:09:09.218Z,-2.40
2018-03-21T05:11:36.834Z,-2.50
2018-03-21T05:14:04.415Z,-2.50
2018-03-21T05:16:32.039Z,-2.50
2018-03-21T05:18:59.640Z,-2.60
2018-03-21T05:21:27.274Z,-2.60
2018-03-21T05:23:54.847Z,-2.60
2018-03-21T05:26:22.472Z,-2.60
2018-03-21T05:28:50.812Z,-2.60
2018-03-21T05:31:18.453Z,-2.60
2018-03-21T05:33:46.094Z,-2.60
2018-03-21T05:36:13.748Z,-2.60
2018-03-21T05:38:41.368Z,-2.60
2018-03-21T05:41:08.950Z,-2.60
2018-03-21T05:43:37.385Z,-2.60
2018-03-21T05:46:04.962Z,-2.70
2018-03-21T05:48:32.597Z,-2.70
2018-03-21T05:51:00.201Z,-2.70
2018-03-21T05:53:28.562Z,-2.70
2018-03-21T05:55:56.197Z,-2.70
2018-03-21T05:58:23.861Z,-2.60
2018-03-21T06:00:51.490Z,-2.60
2018-03-21T06:03:19.866Z,-2.60
2018-03-21T06:05:48.270Z,-2.60
2018-03-21T06:08:15.849Z,-2.60
2018-03-21T06:10:43.447Z,-2.50
2018-03-21T06:13:11.105Z,-2.50
2018-03-21T06:15:38.686Z,-2.40
2018-03-21T06:18:06.282Z,-2.30
2018-03-21T06:20:33.947Z,-2.30
2018-03-21T06:23:01.566Z,-2.20
2018-03-21T06:25:29.919Z,-2.10
2018-03-21T06:27:57.534Z,-2.20
2018-03-21T06:30:25.123Z,-2.10
2018-03-21T06:32:52.758Z,-2.10
2018-03-21T06:35:20.432Z,-2.00
2018-03-21T06:37:48.066Z,-2.00
2018-03-21T06:40:16.478Z,-1.90
2018-03-21T06:42:44.092Z,-1.90
2018-03-21T06:45:11.811Z,-1.90
2018-03-21T06:47:39.391Z,-1.90
2018-03-21T06:50:07.112Z,-1.80
2018-03-21T06:52:34.708Z,-1.70
2018-03-21T06:55:02.309Z,-1.60
2018-03-21T06:57:30.675Z,-1.40
2018-03-21T07:00:00.047Z,-1.40
2018-03-21T07:02:27.691Z,-1.30
2018-03-21T07:04:56.142Z,-1.10
2018-03-21T07:07:23.830Z,-1.10
2018-03-21T07:09:51.580Z,-1.00
2018-03-21T07:12:19.228Z,-0.90
2018-03-21T07:14:58.614Z,-0.80
2018-03-21T07:17:26.404Z,-0.80
2018-03-21T07:19:54.106Z,-0.70
2018-03-21T07:22:21.817Z,-0.60
2018-03-21T07:24:50.256Z,-0.40
2018-03-21T07:27:17.976Z,-0.40
2018-03-21T07:29:45.697Z,-0.30
2018-03-21T07:32:13.306Z,-0.20
2018-03-21T07:34:41.102Z,-0.10
2018-03-21T07:37:08.802Z,0.00
2018-03-21T07:39:36.594Z,0.10
2018-03-21T07:42:04.707Z,0.20
2018-03-21T07:44:32.381Z,0.30
2018-03-21T07:47:00.070Z,0.50
2018-03-21T07:49:27.730Z,0.50
2018-03-21T07:51:55.543Z,1.70
2018-03-21T07:54:23.720Z,0.80
2018-03-21T07:56:52.434Z,0.90
2018-03-21T07:59:20.454Z,1.00
2018-03-21T08:01:48.956Z,1.10
2018-03-21T08:04:16.702Z,1.10
2018-03-21T08:06:44.358Z,1.20
2018-03-21T08:09:11.961Z,1.40
2018-03-21T08:11:39.626Z,1.50
2018-03-21T08:14:08.046Z,2.00
2018-03-21T08:16:35.664Z,1.90
2018-03-21T08:19:03.237Z,2.10
2018-03-21T08:21:30.938Z,2.40
2018-03-21T08:23:58.563Z,3.00
2018-03-21T08:26:26.158Z,3.60
2018-03-21T08:28:53.909Z,4.50
2018-03-21T08:31:21.564Z,5.30
2018-03-21T08:33:49.128Z,6.20
2018-03-21T08:36:16.767Z,6.80
2018-03-21T08:38:45.098Z,7.20
2018-03-21T08:41:12.837Z,7.10
2018-03-21T08:43:41.201Z,8.20
2018-03-21T08:46:09.635Z,8.20
2018-03-21T08:48:38.132Z,8.60
2018-03-21T08:51:05.666Z,8.60
2018-03-21T08:53:33.314Z,9.00
2018-03-21T08:56:01.411Z,9.20
2018-03-21T08:58:29.978Z,9.60
2018-03-21T09:00:57.582Z,10.00
2018-03-21T09:03:26.001Z,10.70
2018-03-21T09:05:54.002Z,10.70
2018-03-21T09:08:21.605Z,10.90
2018-03-21T09:10:49.997Z,12.10
2018-03-21T09:13:17.611Z,12.10
2018-03-21T09:15:45.212Z,12.50
2018-03-21T09:18:12.852Z,12.20
2018-03-21T09:20:41.226Z,11.80
2018-03-21T09:23:09.583Z,12.20
2018-03-21T09:25:37.320Z,12.20
2018-03-21T09:28:05.379Z,12.60
2018-03-21T09:30:32.994Z,12.80
2018-03-21T09:33:00.626Z,12.50
2018-03-21T09:35:28.235Z,11.90
2018-03-21T09:37:56.610Z,11.90
2018-03-21T09:40:24.938Z,12.30
2018-03-21T09:42:52.982Z,12.30
2018-03-21T09:45:21.544Z,12.60
2018-03-21T09:47:50.290Z,12.70
2018-03-21T09:50:19.635Z,11.90
2018-03-21T09:52:47.840Z,11.80
2018-03-21T09:55:16.013Z,12.20
2018-03-21T09:57:43.982Z,12.10
2018-03-21T10:00:21.606Z,12.60
2018-03-21T10:02:49.188Z,12.70
2018-03-21T10:05:16.813Z,11.90
2018-03-21T10:07:44.671Z,12.50
2018-03-21T10:10:12.330Z,13.20
2018-03-21T10:12:39.947Z,13.50
2018-03-21T10:15:07.536Z,13.90
2018-03-21T10:17:35.907Z,14.50
2018-03-21T10:20:03.559Z,14.50
2018-03-21T10:22:32.058Z,15.00
2018-03-21T10:25:00.459Z,14.90
2018-03-21T10:27:28.062Z,14.90
2018-03-21T10:29:55.682Z,15.50
2018-03-21T10:32:23.305Z,15.60
2018-03-21T10:34:50.896Z,15.90
2018-03-21T10:37:18.464Z,15.80
2018-03-21T10:39:46.109Z,16.10
2018-03-21T10:42:14.446Z,14.30
2018-03-21T10:44:42.063Z,14.30
2018-03-21T10:47:09.638Z,13.20
2018-03-21T10:49:37.285Z,13.30
2018-03-21T10:52:04.973Z,13.40
2018-03-21T10:54:32.624Z,13.10
2018-03-21T10:57:00.982Z,12.70
2018-03-21T10:59:28.558Z,12.70
2018-03-21T11:02:01.745Z,13.10
2018-03-21T11:04:29.292Z,13.10
2018-03-21T11:06:56.958Z,11.40
2018-03-21T11:09:24.595Z,10.50
2018-03-21T11:11:52.246Z,11.00
2018-03-21T11:14:19.807Z,11.90
2018-03-21T11:16:47.400Z,12.80
2018-03-21T11:19:15.931Z,12.90
2018-03-21T11:21:43.568Z,12.80
2018-03-21T11:24:11.148Z,12.70
2018-03-21T11:26:38.784Z,12.60
2018-03-21T11:29:06.397Z,13.10
2018-03-21T11:31:33.994Z,13.40
2018-03-21T11:34:01.644Z,13.50
2018-03-21T11:36:29.287Z,13.80
2018-03-21T11:38:56.959Z,14.40
2018-03-21T11:41:24.570Z,14.90
2018-03-21T11:43:52.192Z,15.50
2018-03-21T11:46:20.556Z,17.80
2018-03-21T11:48:48.185Z,17.80
2018-03-21T11:51:15.759Z,18.50
2018-03-21T11:53:43.336Z,18.80
2018-03-21T11:56:11.726Z,20.30
2018-03-21T11:58:40.134Z,20.00
